TAF and METAR

METAR for Hermes Quijada International Airport

SAWE 061200Z 27005KT CAVOK M01/M02 Q0999
Report created 6. aug 14:00
wind 5 knots from W (270°) Clear sky Temperature -1° with dewpoint at -2° (Humidity 92.91%) Pressure 999 hPa

TAF for Hermes Quijada International Airport

TAF SAWE 061100Z 0612/0712 27010KT CAVOK TX05/0618Z TN00/0706Z BECMG 0615/0617 32020KT 9999 SCT030 SCT100 BECMG 0703/0705 25015KT SCT020 BKN090 TEMPO 0703/0706 SHRA BECMG 0706/0708 29020KT CAVOK
Report created 6. aug 13:00

between 6. aug 14:00 - 7. aug 14:00

wind 10 knots from W (270°) Clear sky Max temperature 05° expected today at around 20 o'clock Min temperature 00° expected tomorrow at around 08 o'clock

becoming between 6. aug 17:00 - 6. aug 19:00

wind 20 knots from NW (320°) visibility > 10km scattered clouds (~50% cover) at 3000 feet scattered clouds (~50% cover) at 10000 feet

becoming between 7. aug 05:00 - 7. aug 07:00

wind 15 knots from WSW (250°) scattered clouds (~50% cover) at 2000 feet broken clouds (~75% cover) at 9000 feet

temporarily between 7. aug 05:00 - 7. aug 08:00

rain showers

becoming between 7. aug 08:00 - 7. aug 10:00

wind 20 knots from WNW (290°) Clear sky